Time;durP1;ratioP1;P1;durP2;ratioP2;P2;SDS_P1;SDS_P2;PMS_P1;PMS_P2;Temp;Humidity;BMP_temperature;BMP_pressure;BME280_temperature;BME280_humidity;BME280_pressure;Samples;Min_cycle;Max_cycle;Signal;HPM_P1;HPM_P2
2023/04/20 00:02:09;;;;;;;6.90;5.80;;;;;;;5.39;79.11;152747.25;5042777;28;20463;-77
2023/04/20 00:04:36;;;;;;;6.40;5.30;;;;;;;5.32;79.35;152727.91;5044430;28;20451;-77
2023/04/20 00:07:03;;;;;;;5.33;4.40;;;;;;;5.25;80.02;152711.13;5044359;28;20524;-77
2023/04/20 00:09:30;;;;;;;5.43;4.80;;;;;;;5.28;79.71;152718.88;5043890;28;20456;-77
2023/04/20 00:11:57;;;;;;;7.93;4.83;;;;;;;5.35;79.39;152736.91;5038324;28;20458;-77
2023/04/20 00:14:23;;;;;;;7.13;5.40;;;;;;;5.32;79.82;152727.91;5043247;28;20487;-77
2023/04/20 00:16:50;;;;;;;6.60;5.90;;;;;;;5.27;79.67;152715.03;5053066;28;20531;-77
2023/04/20 00:19:19;;;;;;;5.43;4.90;;;;;;;5.27;79.82;152715.03;5061753;28;20483;-77
2023/04/20 00:21:46;;;;;;;5.73;4.80;;;;;;;5.23;80.21;152704.69;5048877;28;20459;-77
2023/04/20 00:24:12;;;;;;;5.70;5.20;;;;;;;5.15;80.69;152684.06;5035511;28;20467;-77
2023/04/20 00:26:39;;;;;;;6.30;5.70;;;;;;;5.13;81.06;152678.94;5045749;28;20442;-77
2023/04/20 00:29:06;;;;;;;5.23;4.67;;;;;;;5.15;80.79;152685.38;5053718;28;20857;-77
2023/04/20 00:31:32;;;;;;;5.03;4.53;;;;;;;5.12;80.77;152676.31;5028385;28;21064;-77
2023/04/20 00:33:59;;;;;;;5.17;4.63;;;;;;;5.05;81.78;152658.31;5058412;28;20840;-77
2023/04/20 00:36:28;;;;;;;5.80;5.20;;;;;;;4.97;81.86;152637.69;5039169;28;20459;-77
2023/04/20 00:38:55;;;;;;;4.90;4.50;;;;;;;4.95;81.50;152632.53;5042911;28;20479;-77
2023/04/20 00:41:22;;;;;;;6.00;5.00;;;;;;;4.91;82.45;152624.78;5044413;28;20554;-77
2023/04/20 00:43:52;;;;;;;6.43;5.53;;;;;;;4.92;83.11;152627.34;5042542;28;20460;-77
2023/04/20 00:46:19;;;;;;;5.90;4.97;;;;;;;4.86;83.25;152611.91;5023580;28;20551;-77
2023/04/20 00:48:46;;;;;;;7.17;5.40;;;;;;;4.83;83.32;152604.16;5044167;28;20785;-77
2023/04/20 00:51:13;;;;;;;7.20;5.33;;;;;;;4.88;83.06;152615.75;5039246;28;20553;-77
2023/04/20 00:53:41;;;;;;;5.90;5.30;;;;;;;4.86;82.96;152611.91;5048512;28;20454;-77
2023/04/20 00:56:08;;;;;;;5.67;5.13;;;;;;;4.81;83.84;152597.72;5037633;28;20890;-76
2023/04/20 00:58:34;;;;;;;7.47;5.43;;;;;;;4.78;83.65;152591.28;5061840;28;20990;-76
2023/04/20 01:01:01;;;;;;;5.70;5.00;;;;;;;4.74;84.17;152580.97;5043163;28;20995;-76
2023/04/20 01:03:27;;;;;;;4.83;4.33;;;;;;;4.68;84.22;152564.22;5032645;28;20529;-76
2023/04/20 01:05:54;;;;;;;7.87;4.70;;;;;;;4.65;84.25;152557.78;5043707;28;20839;-76
2023/04/20 01:08:25;;;;;;;6.33;4.87;;;;;;;4.64;84.81;152553.91;5017654;28;20456;-76
2023/04/20 01:10:54;;;;;;;5.97;4.37;;;;;;;4.59;85.05;152542.31;5052428;28;20460;-76
2023/04/20 01:13:20;;;;;;;6.10;5.50;;;;;;;4.59;85.30;152541.03;5044983;28;20836;-76
2023/04/20 01:15:47;;;;;;;6.07;4.57;;;;;;;4.57;84.92;152535.88;5032706;28;20459;-77
2023/04/20 01:18:16;;;;;;;8.87;5.60;;;;;;;4.54;84.68;152529.44;5018078;28;20455;-76
2023/04/20 01:20:43;;;;;;;6.30;5.70;;;;;;;4.55;85.28;152532.03;5053834;28;20550;-76
2023/04/20 01:23:11;;;;;;;6.20;5.13;;;;;;;4.53;85.16;152526.84;5035134;28;20557;-78
2023/04/20 01:25:38;;;;;;;7.53;5.30;;;;;;;4.52;85.29;152524.28;5051404;28;20463;-76
2023/04/20 01:28:05;;;;;;;5.97;4.80;;;;;;;4.49;85.27;152516.56;5063792;28;20783;-77
2023/04/20 01:30:32;;;;;;;6.20;5.00;;;;;;;4.40;85.55;152492.06;5053421;28;20450;-77
2023/04/20 01:32:58;;;;;;;5.53;4.70;;;;;;;4.29;87.08;152465.00;5039299;28;20497;-78
2023/04/20 01:35:25;;;;;;;8.47;4.93;;;;;;;4.25;87.92;152454.72;5024728;28;20574;-78
2023/04/20 01:37:51;;;;;;;5.97;4.80;;;;;;;4.26;87.73;152457.31;5041765;28;20455;-76
2023/04/20 01:40:20;;;;;;;5.80;4.60;;;;;;;4.19;88.12;152440.56;5041481;28;20483;-76
2023/04/20 01:42:46;;;;;;;6.33;5.73;;;;;;;4.18;87.85;152436.72;5053438;28;20452;-77
2023/04/20 01:45:13;;;;;;;7.60;4.63;;;;;;;4.17;88.13;152434.13;5050852;28;20503;-77
2023/04/20 01:47:39;;;;;;;6.50;5.60;;;;;;;4.15;88.80;152428.97;5026235;28;20460;-77
2023/04/20 01:50:07;;;;;;;6.57;5.53;;;;;;;4.11;89.21;152418.66;5022849;28;20533;-77
2023/04/20 01:52:34;;;;;;;5.83;4.73;;;;;;;4.14;88.75;152427.69;5041057;28;20463;-77
2023/04/20 01:55:00;;;;;;;5.77;5.00;;;;;;;4.22;88.25;152447.00;5050818;28;20578;-76
2023/04/20 01:57:28;;;;;;;7.27;5.60;;;;;;;4.24;87.49;152453.44;5045509;28;20451;-77
2023/04/20 01:59:55;;;;;;;6.70;5.60;;;;;;;4.17;87.71;152435.41;5042070;28;20482;-78
2023/04/20 02:02:21;;;;;;;6.20;5.20;;;;;;;4.13;88.51;152423.84;5028589;28;20861;-78
2023/04/20 02:04:48;;;;;;;8.50;6.33;;;;;;;4.10;88.96;152416.09;5037827;28;20459;-78
2023/04/20 02:07:15;;;;;;;6.57;5.83;;;;;;;4.05;88.99;152404.47;5046107;28;20973;-78
2023/04/20 02:09:42;;;;;;;6.43;5.77;;;;;;;4.01;90.21;152394.19;5021171;28;20475;-78
2023/04/20 02:12:09;;;;;;;8.03;5.70;;;;;;;3.96;89.95;152380.03;5034472;28;20440;-78
2023/04/20 02:14:40;;;;;;;8.53;6.60;;;;;;;4.05;88.97;152404.47;5042026;28;20467;-78
2023/04/20 02:17:10;;;;;;;7.00;5.83;;;;;;;4.05;89.59;152403.22;5022058;28;20478;-78
2023/04/20 02:19:36;;;;;;;6.43;5.70;;;;;;;4.08;89.32;152410.91;5035996;28;21013;-78
2023/04/20 02:22:03;;;;;;;10.97;6.07;;;;;;;4.02;88.71;152396.78;5042018;28;21032;-78
2023/04/20 02:24:29;;;;;;;6.23;5.60;;;;;;;3.98;89.76;152385.16;5037765;28;20989;-78
2023/04/20 02:26:57;;;;;;;7.70;6.10;;;;;;;3.95;89.76;152377.44;5041979;28;20460;-84
2023/04/20 02:29:24;;;;;;;7.17;6.00;;;;;;;3.99;89.57;152389.06;5046363;28;20455;-84
2023/04/20 02:31:52;;;;;;;6.40;5.67;;;;;;;4.05;89.24;152403.22;5046856;28;20456;-85
2023/04/20 02:34:18;;;;;;;7.50;6.00;;;;;;;4.07;88.16;152408.38;5025691;28;20468;-83
2023/04/20 02:36:45;;;;;;;6.23;5.63;;;;;;;4.12;88.48;152421.25;5051190;28;20458;-83
2023/04/20 02:39:12;;;;;;;7.67;6.00;;;;;;;4.05;88.46;152404.47;5051154;28;20482;-84
2023/04/20 02:41:39;;;;;;;6.67;5.97;;;;;;;4.00;88.33;152391.59;5043138;28;20539;-76
2023/04/20 02:44:06;;;;;;;6.97;5.70;;;;;;;4.00;89.08;152391.59;5020446;28;20481;-76
2023/04/20 02:46:36;;;;;;;7.10;5.93;;;;;;;3.99;89.69;152387.75;5040059;28;20589;-78
2023/04/20 02:49:03;;;;;;;5.70;5.20;;;;;;;3.94;89.18;152376.19;5033946;28;21088;-78
2023/04/20 02:51:33;;;;;;;8.77;6.30;;;;;;;3.85;89.68;152351.69;5015397;28;20492;-78
2023/04/20 02:54:00;;;;;;;7.07;6.03;;;;;;;3.89;90.17;152362.00;5032758;28;20809;-78
2023/04/20 02:56:29;;;;;;;7.53;6.10;;;;;;;3.89;89.51;152362.00;5020794;28;20487;-77
2023/04/20 02:58:59;;;;;;;7.63;6.10;;;;;;;3.86;90.34;152354.28;5028133;28;20459;-78
2023/04/20 03:01:30;;;;;;;7.43;6.50;;;;;;;3.81;90.25;152341.41;5035435;28;20474;-78
2023/04/20 03:04:20;;;;;;;7.37;6.67;;;;;;;3.74;90.34;152324.66;5036554;28;20467;-78
2023/04/20 03:06:57;;;;;;;7.97;6.30;;;;;;;3.71;90.88;152315.69;5014111;28;20472;-78
2023/04/20 03:09:27;;;;;;;7.10;5.40;;;;;;;3.66;91.34;152305.34;5034161;28;20554;-78
2023/04/20 03:12:01;;;;;;;5.83;5.30;;;;;;;3.70;91.36;152314.38;5038611;28;20452;-78
2023/04/20 03:14:54;;;;;;;7.73;6.57;;;;;;;3.63;91.49;152296.31;5037677;28;20462;-78
2023/04/20 03:17:26;;;;;;;7.27;6.30;;;;;;;3.61;91.98;152292.47;5043194;28;21745;-78
2023/04/20 03:19:54;;;;;;;6.90;6.20;;;;;;;3.62;92.24;152293.78;5041607;28;20511;-78
2023/04/20 03:22:20;;;;;;;7.53;6.63;;;;;;;3.56;92.04;152279.63;5044502;28;20464;-78
2023/04/20 03:24:51;;;;;;;7.90;6.83;;;;;;;3.58;92.24;152283.47;5040911;28;20472;-78
2023/04/20 03:27:42;;;;;;;7.03;5.53;;;;;;;3.53;92.69;152271.88;5038198;28;20474;-78
2023/04/20 03:30:13;;;;;;;7.37;6.57;;;;;;;3.48;92.31;152257.72;5050967;28;20459;-78
2023/04/20 03:32:40;;;;;;;7.03;6.33;;;;;;;3.50;92.86;152262.84;5044514;28;21000;-78
2023/04/20 03:35:09;;;;;;;6.63;5.73;;;;;;;3.50;93.04;152262.84;5017047;28;20879;-78
2023/04/20 03:37:36;;;;;;;6.90;6.20;;;;;;;3.54;92.89;152273.19;5048029;28;20491;-78
2023/04/20 03:40:07;;;;;;;8.03;6.60;;;;;;;3.57;93.00;152282.16;5042031;28;20487;-78
2023/04/20 03:42:34;;;;;;;7.13;6.53;;;;;;;3.63;92.26;152296.31;5048561;28;20468;-77
2023/04/20 03:45:00;;;;;;;7.17;6.20;;;;;;;3.64;91.89;152298.91;5047020;28;20451;-78
2023/04/20 03:47:27;;;;;;;7.20;6.53;;;;;;;3.61;92.12;152291.19;5049327;28;20864;-78
2023/04/20 03:49:53;;;;;;;7.27;6.57;;;;;;;3.61;92.76;152291.19;5033541;28;20455;-76
2023/04/20 03:52:21;;;;;;;6.47;5.77;;;;;;;3.60;92.96;152288.66;5046362;28;20514;-78
2023/04/20 03:54:48;;;;;;;6.00;5.20;;;;;;;3.56;92.87;152278.31;5038817;28;20503;-77
2023/04/20 03:57:16;;;;;;;6.57;5.93;;;;;;;3.54;92.22;152273.19;5030520;28;20848;-77
2023/04/20 03:59:43;;;;;;;7.63;6.10;;;;;;;3.45;93.43;152251.28;5043733;28;20467;-77
2023/04/20 04:02:15;;;;;;;9.03;6.60;;;;;;;3.44;93.62;152248.69;5029875;28;20459;-77
2023/04/20 04:04:44;;;;;;;9.27;6.57;;;;;;;3.55;93.17;152275.72;5047030;28;20463;-77
2023/04/20 04:07:11;;;;;;;6.90;5.53;;;;;;;3.46;93.29;152253.88;5043328;28;20455;-76
2023/04/20 04:09:41;;;;;;;7.23;6.50;;;;;;;3.37;93.78;152229.41;5032124;28;20455;-75
2023/04/20 04:12:08;;;;;;;6.37;5.77;;;;;;;3.40;93.51;152238.41;5017956;28;20547;-78
2023/04/20 04:14:35;;;;;;;7.20;6.37;;;;;;;3.47;93.60;152256.44;5040718;28;20468;-78
2023/04/20 04:17:02;;;;;;;7.63;6.03;;;;;;;3.43;94.34;152244.84;5022557;28;20456;-75
2023/04/20 04:19:30;;;;;;;7.40;6.70;;;;;;;3.49;94.01;152261.59;5029642;28;20584;-78
2023/04/20 04:21:57;;;;;;;7.70;6.43;;;;;;;3.45;93.71;152251.28;5047481;28;20459;-77
2023/04/20 04:24:25;;;;;;;8.27;6.60;;;;;;;3.43;93.38;152246.16;5041407;28;20467;-78
2023/04/20 04:27:07;;;;;;;7.33;6.63;;;;;;;3.46;94.14;152253.88;5018301;28;20574;-78
2023/04/20 04:29:40;;;;;;;7.63;6.83;;;;;;;3.53;93.92;152270.59;5046693;28;20542;-78
2023/04/20 04:32:10;;;;;;;7.60;6.77;;;;;;;3.52;93.37;152268.03;5037619;28;20478;-77
2023/04/20 04:34:37;;;;;;;9.00;6.30;;;;;;;3.50;93.79;152264.16;5043525;28;20467;-77
2023/04/20 04:37:04;;;;;;;7.93;6.30;;;;;;;3.45;93.62;152251.28;5043775;28;20584;-77
2023/04/20 04:40:09;;;;;;;6.40;5.80;;;;;;;3.43;93.98;152244.84;5040707;28;20993;-78
2023/04/20 04:42:37;;;;;;;8.33;7.23;;;;;;;3.39;94.97;152235.81;5028186;28;20452;-77
2023/04/20 04:45:06;;;;;;;8.27;7.07;;;;;;;3.41;94.61;152241.00;5044234;28;20467;-78
2023/04/20 04:47:36;;;;;;;10.63;6.80;;;;;;;3.36;95.14;152228.09;5021088;28;20457;-78
2023/04/20 04:50:04;;;;;;;9.00;6.43;;;;;;;3.37;95.92;152229.41;5058413;28;20447;-78
2023/04/20 04:52:31;;;;;;;8.30;7.10;;;;;;;3.42;95.20;152242.25;5044476;28;20455;-78
2023/04/20 04:54:57;;;;;;;6.70;6.00;;;;;;;3.46;95.61;152252.59;5061063;28;20491;-78
2023/04/20 04:57:24;;;;;;;8.50;7.00;;;;;;;3.50;95.17;152264.16;5062874;28;20762;-77
2023/04/20 04:59:52;;;;;;;7.23;6.33;;;;;;;3.52;95.34;152268.03;5041804;28;20466;-77
2023/04/20 05:02:19;;;;;;;9.43;7.87;;;;;;;3.50;95.17;152264.16;5047213;28;20463;-77
2023/04/20 05:04:46;;;;;;;9.53;7.37;;;;;;;3.55;95.33;152277.03;5042100;28;20658;-77
2023/04/20 05:07:14;;;;;;;7.00;6.30;;;;;;;3.60;94.83;152289.88;5040343;28;20456;-78
2023/04/20 05:09:41;;;;;;;9.80;7.53;;;;;;;3.61;95.30;152292.47;5021116;28;20816;-78
2023/04/20 05:12:07;;;;;;;8.93;7.33;;;;;;;3.66;94.31;152304.06;5054920;28;21385;-77
2023/04/20 05:14:34;;;;;;;7.57;6.40;;;;;;;3.66;94.90;152305.34;5022288;28;20458;-78
2023/04/20 05:17:02;;;;;;;7.30;6.60;;;;;;;3.69;94.69;152313.09;5049000;28;20455;-77
2023/04/20 05:19:29;;;;;;;8.87;6.90;;;;;;;3.72;93.89;152318.22;5058800;28;20493;-77
2023/04/20 05:21:55;;;;;;;8.57;7.03;;;;;;;3.74;93.79;152323.34;5039826;28;20527;-77
2023/04/20 05:24:22;;;;;;;8.67;6.67;;;;;;;3.81;94.14;152342.72;5018997;28;20463;-77
2023/04/20 05:26:49;;;;;;;8.73;7.57;;;;;;;3.94;94.25;152374.88;5056586;28;20458;-77
2023/04/20 05:29:15;;;;;;;8.40;6.47;;;;;;;4.11;92.85;152418.66;5056363;28;20495;-78
2023/04/20 05:31:42;;;;;;;8.47;6.97;;;;;;;4.29;92.37;152466.31;5055264;28;20452;-77
2023/04/20 05:34:10;;;;;;;9.40;7.40;;;;;;;4.44;91.59;152502.38;5039065;28;20842;-77
2023/04/20 05:36:39;;;;;;;8.63;7.20;;;;;;;4.62;91.02;152548.75;5043082;28;20838;-77
2023/04/20 05:39:06;;;;;;;7.67;6.00;;;;;;;4.82;89.53;152600.28;5055872;28;20445;-77
2023/04/20 05:41:32;;;;;;;10.40;7.47;;;;;;;4.99;89.26;152642.81;5042053;28;20478;-77
2023/04/20 05:43:59;;;;;;;9.27;7.50;;;;;;;5.18;89.29;152691.81;5038352;28;20836;-77
2023/04/20 05:46:26;;;;;;;8.33;7.10;;;;;;;5.39;88.34;152745.94;5045073;28;20457;-77
2023/04/20 05:48:52;;;;;;;10.17;7.80;;;;;;;5.57;86.16;152792.38;5034902;28;20463;-77
2023/04/20 05:51:21;;;;;;;10.60;8.30;;;;;;;5.58;85.37;152794.97;5054097;28;20534;-77
2023/04/20 05:53:47;;;;;;;8.43;6.80;;;;;;;5.57;85.53;152791.06;5036526;28;20566;-77
2023/04/20 05:56:14;;;;;;;7.93;7.13;;;;;;;5.63;84.79;152806.56;5042035;28;20868;-77
2023/04/20 05:58:41;;;;;;;8.67;7.77;;;;;;;5.66;84.62;152815.59;5056927;28;20458;-77
2023/04/20 06:01:08;;;;;;;10.23;7.60;;;;;;;5.66;84.01;152815.59;5024444;28;20480;-77
2023/04/20 06:03:35;;;;;;;7.50;6.70;;;;;;;5.81;85.49;152854.28;5023935;28;20451;-78
2023/04/20 06:06:01;;;;;;;7.60;6.80;;;;;;;6.01;85.00;152905.88;5056127;28;20565;-77
2023/04/20 06:08:29;;;;;;;9.00;7.00;;;;;;;6.14;84.50;152939.44;5040547;28;20608;-78
2023/04/20 06:10:56;;;;;;;8.70;6.83;;;;;;;6.19;83.13;152951.06;5014344;28;20455;-77
2023/04/20 06:13:23;;;;;;;9.70;7.30;;;;;;;6.31;82.61;152980.72;5056599;28;20448;-77
2023/04/20 06:15:51;;;;;;;7.87;7.07;;;;;;;6.45;82.65;153016.88;5037882;28;21103;-77
2023/04/20 06:18:18;;;;;;;8.37;7.50;;;;;;;6.51;80.65;153032.38;5055572;28;20645;-77
2023/04/20 06:20:44;;;;;;;8.43;7.40;;;;;;;6.48;81.43;153024.63;5054076;28;20617;-77
2023/04/20 06:23:11;;;;;;;8.93;8.03;;;;;;;6.54;82.06;153041.38;5053169;28;20462;-77
2023/04/20 06:25:39;;;;;;;9.63;7.93;;;;;;;6.73;81.44;153089.13;5042335;28;20463;-77
2023/04/20 06:28:06;;;;;;;11.23;8.17;;;;;;;6.78;81.23;153100.78;5046235;28;20451;-77
2023/04/20 06:30:33;;;;;;;9.90;8.90;;;;;;;7.00;81.11;153158.84;5037928;28;20463;-77
2023/04/20 06:33:01;;;;;;;9.03;8.07;;;;;;;7.29;78.93;153232.44;5052884;28;20455;-77
2023/04/20 06:35:27;;;;;;;9.30;8.30;;;;;;;7.58;79.60;153307.34;5029493;28;20455;-77
2023/04/20 06:37:56;;;;;;;8.60;7.70;;;;;;;7.69;77.95;153334.47;5054620;28;20459;-77
2023/04/20 06:40:22;;;;;;;10.33;8.67;;;;;;;7.78;77.58;153357.72;5038755;28;21134;-77
2023/04/20 06:42:50;;;;;;;11.83;8.43;;;;;;;7.95;76.45;153401.63;5053122;28;20452;-77
2023/04/20 06:45:18;;;;;;;10.13;7.47;;;;;;;7.92;74.95;153393.88;5041780;28;20483;-77
2023/04/20 06:47:44;;;;;;;10.30;8.50;;;;;;;7.84;76.13;153373.19;5017971;28;20459;-78
2023/04/20 06:50:11;;;;;;;9.20;8.30;;;;;;;8.02;77.16;153419.75;5054119;28;20703;-78
2023/04/20 06:52:38;;;;;;;14.20;8.27;;;;;;;8.21;74.82;153468.81;5056432;28;20447;-78
2023/04/20 06:55:05;;;;;;;10.80;9.10;;;;;;;8.25;74.81;153477.88;5058036;28;20470;-78
2023/04/20 06:57:31;;;;;;;9.33;8.27;;;;;;;8.23;73.93;153474.03;5056986;28;20444;-77
2023/04/20 07:00:00;;;;;;;9.63;8.10;;;;;;;8.23;74.42;153474.03;5052272;28;21070;-84
2023/04/20 07:02:27;;;;;;;9.83;8.17;;;;;;;8.33;74.94;153499.91;5053288;28;20468;-84
2023/04/20 07:05:00;;;;;;;9.20;8.30;;;;;;;8.53;74.83;153551.59;5049468;28;20518;-84
2023/04/20 07:07:26;;;;;;;11.43;9.30;;;;;;;8.70;72.99;153592.97;5042404;28;20803;-84
2023/04/20 07:09:53;;;;;;;10.70;8.93;;;;;;;8.71;72.33;153595.56;5020234;28;20517;-84
2023/04/20 07:12:20;;;;;;;9.73;8.73;;;;;;;8.66;72.20;153582.66;5044165;28;20478;-84
2023/04/20 07:14:46;;;;;;;10.03;8.93;;;;;;;8.53;73.63;153551.59;5044795;28;20459;-84
2023/04/20 07:17:14;;;;;;;11.53;8.03;;;;;;;8.32;73.54;153497.31;5059960;28;20447;-84
2023/04/20 07:19:41;;;;;;;10.10;9.10;;;;;;;8.10;74.50;153439.13;5047894;28;20972;-84
2023/04/20 07:22:07;;;;;;;11.23;9.40;;;;;;;8.15;75.08;153453.34;5046818;28;20478;-84
2023/04/20 07:24:34;;;;;;;9.73;8.20;;;;;;;8.15;75.16;153452.03;5060403;28;20459;-84
2023/04/20 07:27:01;;;;;;;10.70;9.60;;;;;;;8.10;76.41;153439.13;5061704;28;20822;-84
2023/04/20 07:29:28;;;;;;;9.43;8.53;;;;;;;7.98;75.61;153409.41;5063017;28;20521;-84
2023/04/20 07:31:54;;;;;;;9.80;8.80;;;;;;;7.97;75.35;153406.78;5059786;28;20467;-84
2023/04/20 07:34:22;;;;;;;10.30;8.57;;;;;;;7.92;76.62;153393.88;5044911;28;20495;-85
2023/04/20 07:36:49;;;;;;;10.10;9.07;;;;;;;8.07;77.13;153432.66;5061715;28;20443;-84
2023/04/20 07:39:15;;;;;;;12.93;9.43;;;;;;;8.27;76.48;153483.09;5046398;28;20550;-85
2023/04/20 07:41:42;;;;;;;10.10;9.07;;;;;;;8.34;75.09;153502.47;5060235;28;20927;-84
2023/04/20 07:44:10;;;;;;;12.57;9.80;;;;;;;8.33;75.91;153498.63;5047786;28;20477;-84
2023/04/20 07:46:36;;;;;;;11.33;10.13;;;;;;;7.93;75.67;153396.47;5062102;28;20455;-84
2023/04/20 07:49:03;;;;;;;16.17;9.73;;;;;;;7.88;77.62;153383.56;5046407;28;20814;-84
2023/04/20 07:51:32;;;;;;;12.10;10.03;;;;;;;7.65;78.40;153324.16;5058054;28;20447;-84
2023/04/20 07:53:58;;;;;;;14.50;10.70;;;;;;;7.66;78.56;153326.72;5048207;28;20520;-84
2023/04/20 07:56:25;;;;;;;11.53;10.10;;;;;;;7.50;79.45;153285.38;5028764;28;20565;-84
2023/04/20 07:58:52;;;;;;;12.60;10.33;;;;;;;7.28;80.22;153229.88;5039101;28;20452;-85
2023/04/20 08:01:23;;;;;;;11.80;10.50;;;;;;;7.14;80.44;153195.00;5040977;28;20545;-84
2023/04/20 08:03:49;;;;;;;15.87;11.83;;;;;;;7.09;81.14;153182.09;5045800;28;20451;-84
2023/04/20 08:06:16;;;;;;;16.63;10.20;;;;;;;7.01;80.66;153161.44;5046487;28;20462;-84
2023/04/20 08:08:44;;;;;;;12.17;10.47;;;;;;;6.98;81.35;153153.69;5042941;28;20451;-85
2023/04/20 08:11:11;;;;;;;13.03;10.17;;;;;;;6.96;81.33;153147.25;5029352;28;20971;-84
2023/04/20 08:13:38;;;;;;;11.17;10.00;;;;;;;6.98;82.26;153153.69;5044250;28;20446;-84
2023/04/20 08:16:04;;;;;;;13.90;10.10;;;;;;;6.85;81.87;153120.13;5044015;28;20459;-84
2023/04/20 08:18:31;;;;;;;10.00;8.60;;;;;;;6.74;82.75;153091.72;5046009;28;20835;-84
2023/04/20 08:20:58;;;;;;;11.83;9.43;;;;;;;6.62;83.37;153062.03;5045062;28;20467;-84
2023/04/20 08:23:26;;;;;;;11.70;9.67;;;;;;;6.49;83.81;153027.16;5046023;28;20447;-84
2023/04/20 08:25:55;;;;;;;10.47;9.37;;;;;;;6.55;84.25;153043.97;5059813;28;20477;-84
2023/04/20 08:28:21;;;;;;;10.97;9.53;;;;;;;6.52;84.50;153036.22;5056591;28;20450;-84
2023/04/20 08:30:48;;;;;;;11.70;10.20;;;;;;;6.37;85.60;152996.22;5062083;28;20836;-84
2023/04/20 08:33:14;;;;;;;12.50;9.83;;;;;;;6.36;86.04;152994.91;5044942;28;20450;-83
2023/04/20 08:35:41;;;;;;;13.40;9.83;;;;;;;6.42;86.56;153009.13;5055727;28;20532;-84
2023/04/20 08:38:08;;;;;;;11.33;10.03;;;;;;;6.49;85.99;153027.16;5045144;28;20458;-84
2023/04/20 08:40:36;;;;;;;11.30;9.30;;;;;;;6.53;87.78;153037.50;5044454;28;20458;-84
2023/04/20 08:43:04;;;;;;;10.90;9.70;;;;;;;6.46;87.71;153020.72;5059293;28;20478;-84
2023/04/20 08:45:31;;;;;;;13.87;9.63;;;;;;;6.33;87.54;152985.91;5043662;28;20455;-84
2023/04/20 08:47:58;;;;;;;12.80;9.93;;;;;;;6.31;88.57;152980.72;5045372;28;20456;-84
2023/04/20 08:50:25;;;;;;;10.87;9.23;;;;;;;6.39;88.80;153002.66;5046225;28;20827;-84
2023/04/20 08:52:51;;;;;;;12.70;10.33;;;;;;;6.38;90.36;152998.81;5045621;28;20453;-84
2023/04/20 08:55:19;;;;;;;11.53;9.37;;;;;;;6.39;89.43;153001.38;5039758;28;20482;-84
2023/04/20 08:57:47;;;;;;;13.00;9.80;;;;;;;6.48;90.00;153024.63;5043198;28;20456;-84
2023/04/20 09:00:17;;;;;;;10.30;9.27;;;;;;;6.39;89.76;153002.66;5060366;28;20693;-83
2023/04/20 09:02:51;;;;;;;9.87;8.23;;;;;;;6.36;90.65;152993.63;5059899;28;20476;-84
2023/04/20 09:05:24;;;;;;;9.47;8.37;;;;;;;6.36;92.42;152993.63;5059111;28;20546;-84
2023/04/20 09:07:52;;;;;;;10.10;8.67;;;;;;;6.28;92.94;152974.28;5045866;28;20450;-84
2023/04/20 09:10:19;;;;;;;11.67;9.83;;;;;;;6.24;93.01;152962.66;5021898;28;20494;-84
2023/04/20 09:12:45;;;;;;;10.90;9.60;;;;;;;6.20;95.15;152953.63;5057243;28;20460;-83
2023/04/20 09:15:25;;;;;;;10.73;9.43;;;;;;;6.20;95.26;152952.31;5041690;28;20455;-84
2023/04/20 09:17:52;;;;;;;11.93;9.40;;;;;;;6.21;95.68;152954.94;5027935;28;20456;-84
2023/04/20 09:20:28;;;;;;;10.50;9.20;;;;;;;6.14;95.49;152939.44;5060044;28;20467;-84
2023/04/20 09:22:54;;;;;;;11.83;10.50;;;;;;;6.11;94.74;152931.72;5056813;28;20475;-84
2023/04/20 09:25:21;;;;;;;10.40;9.33;;;;;;;6.20;95.32;152952.31;5061417;28;20461;-84
2023/04/20 09:27:55;;;;;;;12.00;8.97;;;;;;;6.24;95.09;152962.66;5044866;28;20459;-84
2023/04/20 09:30:22;;;;;;;10.90;9.20;;;;;;;6.19;94.79;152949.78;5058276;28;20455;-84
2023/04/20 09:33:01;;;;;;;11.77;9.10;;;;;;;6.09;94.21;152925.22;5057754;28;20443;-84
2023/04/20 09:35:27;;;;;;;12.50;9.40;;;;;;;6.14;94.79;152939.44;5060350;28;20583;-84
2023/04/20 09:37:54;;;;;;;12.10;9.90;;;;;;;6.25;94.74;152966.53;5056951;28;20620;-83
2023/04/20 09:40:21;;;;;;;12.33;9.80;;;;;;;6.24;94.36;152963.97;5058160;28;20973;-84
2023/04/20 09:42:48;;;;;;;10.93;9.57;;;;;;;6.20;94.30;152952.31;5057370;28;20475;-84
2023/04/20 09:45:15;;;;;;;12.83;10.77;;;;;;;6.11;94.80;152931.72;5044962;28;20923;-84
2023/04/20 09:47:43;;;;;;;12.63;10.00;;;;;;;6.14;94.89;152939.44;5042361;28;20455;-84
2023/04/20 09:50:12;;;;;;;14.13;9.83;;;;;;;6.20;94.95;152952.31;5039067;28;20970;-84
2023/04/20 09:52:39;;;;;;;12.80;9.73;;;;;;;6.18;94.69;152947.19;5044268;28;20451;-83
2023/04/20 09:55:07;;;;;;;10.37;8.87;;;;;;;6.11;94.35;152931.72;5043280;28;20529;-84
2023/04/20 09:57:35;;;;;;;9.80;8.80;;;;;;;6.12;95.91;152934.28;5042036;28;20439;-83
2023/04/20 10:00:04;;;;;;;10.33;9.30;;;;;;;6.08;96.17;152923.97;5043332;28;20459;-83
2023/04/20 10:02:32;;;;;;;12.07;9.90;;;;;;;6.09;95.64;152926.53;5057183;28;20808;-84
2023/04/20 10:05:00;;;;;;;12.27;9.83;;;;;;;6.10;95.89;152929.13;5057461;28;20491;-84
2023/04/20 10:07:29;;;;;;;11.03;9.40;;;;;;;6.13;97.29;152936.88;5056648;28;21011;-84
2023/04/20 10:10:03;;;;;;;11.00;9.67;;;;;;;6.16;97.40;152943.31;5059989;28;20450;-84
2023/04/20 10:12:30;;;;;;;11.63;9.83;;;;;;;6.16;98.36;152942.03;5056807;28;21033;-84
2023/04/20 10:14:59;;;;;;;13.30;10.90;;;;;;;6.09;97.65;152926.53;5043199;28;20464;-84
2023/04/20 10:17:30;;;;;;;12.10;9.83;;;;;;;6.10;97.83;152927.84;5035197;28;20442;-84
2023/04/20 10:19:57;;;;;;;13.37;10.80;;;;;;;6.08;98.73;152922.69;5056785;28;21037;-84
2023/04/20 10:22:31;;;;;;;13.47;11.30;;;;;;;6.04;99.76;152912.34;5043286;28;21471;-84
2023/04/20 10:24:58;;;;;;;13.07;11.67;;;;;;;6.12;99.34;152934.28;5043055;28;20787;-84
2023/04/20 10:27:25;;;;;;;11.80;10.60;;;;;;;6.23;100.00;152960.06;5035427;28;21042;-84
2023/04/20 10:29:51;;;;;;;12.53;10.47;;;;;;;6.21;99.80;152956.22;5058826;28;20463;-83
2023/04/20 10:32:22;;;;;;;13.00;10.43;;;;;;;6.28;100.00;152972.97;5019371;28;20459;-83
2023/04/20 10:35:00;;;;;;;12.80;10.70;;;;;;;6.39;100.00;153002.66;5041179;28;20491;-83
2023/04/20 10:37:28;;;;;;;12.63;10.60;;;;;;;6.24;100.00;152962.66;5042284;28;20455;-84
2023/04/20 10:39:55;;;;;;;12.40;9.87;;;;;;;6.14;100.00;152939.44;5059550;28;20499;-83
2023/04/20 10:42:21;;;;;;;13.23;10.07;;;;;;;6.21;100.00;152954.94;5043760;28;20581;-84
2023/04/20 10:44:48;;;;;;;12.50;10.23;;;;;;;6.22;100.00;152958.81;5036083;28;20455;-84
2023/04/20 10:47:15;;;;;;;11.23;9.63;;;;;;;6.27;100.00;152971.72;5042231;28;20451;-84
2023/04/20 10:49:41;;;;;;;11.60;10.40;;;;;;;6.27;100.00;152971.72;5044231;28;20549;-85
2023/04/20 10:52:08;;;;;;;12.73;11.30;;;;;;;6.29;100.00;152976.88;5044626;28;20454;-85
2023/04/20 10:54:38;;;;;;;12.13;10.10;;;;;;;6.26;100.00;152967.81;5041983;28;21028;-86
2023/04/20 10:57:06;;;;;;;13.77;10.27;;;;;;;6.22;100.00;152957.53;5043026;28;20451;-86
2023/04/20 10:59:33;;;;;;;14.67;11.60;;;;;;;6.19;100.00;152951.06;5038956;28;20944;-86
2023/04/20 11:02:00;;;;;;;16.47;12.53;;;;;;;6.12;100.00;152934.28;5024410;28;20470;-86
2023/04/20 11:04:30;;;;;;;16.00;11.50;;;;;;;6.17;100.00;152944.63;5043804;28;20459;-86
2023/04/20 11:07:04;;;;;;;12.87;9.53;;;;;;;6.11;100.00;152931.72;5039422;28;20525;-86
2023/04/20 11:09:32;;;;;;;8.70;7.20;;;;;;;6.04;100.00;152913.63;5045754;28;20456;-86
2023/04/20 11:12:01;;;;;;;9.60;7.87;;;;;;;5.97;100.00;152895.59;5051474;28;20444;-85
2023/04/20 11:14:28;;;;;;;9.60;7.80;;;;;;;5.96;100.00;152891.69;5066892;28;20893;-86
2023/04/20 11:16:55;;;;;;;9.43;8.43;;;;;;;5.98;100.00;152898.16;5050254;28;20497;-85
2023/04/20 11:19:23;;;;;;;11.23;9.10;;;;;;;6.03;100.00;152911.09;5028610;28;20483;-86
2023/04/20 11:21:49;;;;;;;11.77;9.10;;;;;;;6.09;100.00;152926.53;5058416;28;20457;-85
2023/04/20 11:24:19;;;;;;;11.57;8.73;;;;;;;6.08;100.00;152922.69;5043777;28;20469;-85
2023/04/20 11:26:48;;;;;;;11.20;8.60;;;;;;;6.13;100.00;152935.59;5058780;28;20521;-86
2023/04/20 11:29:30;;;;;;;11.07;9.67;;;;;;;6.12;100.00;152934.28;5039640;28;20484;-86
2023/04/20 11:31:57;;;;;;;11.77;9.70;;;;;;;6.24;100.00;152962.66;5057349;28;20485;-86
2023/04/20 11:34:23;;;;;;;12.47;9.80;;;;;;;6.25;100.00;152965.28;5059141;28;20466;-86